Accueil
METAR-TAF:

METAR-TAF

Aéroports :

Phitsanulok, Thaïlande

latitude: 16-46-23N, longitude: 100-16-56E, altitude: 47 m

Observation

Le bulletin a été fait il y a 12 minutes, à 14:00 UTC
Vent 3 kt de nord-ouest
Température 21°C
Humidité 69%
Pression 1008 hPa
Visibilité: 6000 m

METAR: VTPP 261400Z 31003KT 6000 NSC 21/15 Q1008 NOSIG

Heure: 21:12 (14:12 UTC)

Prévision

Le bulletin a été fait il y a 3 heures et 12 minutes, à 11:00 UTC
Prévision valable du 26 à 12 UTC au 27 à 12 UTC
Vent 5 kt de sud-est
Visibilité: 8000 m

TAF: VTPP 261100Z 2612/2712 13005KT 8000 NSC

Observations et prévisions météorologiques de plus de 4000 aéroports (messages METAR et TAF).

Les stations disponibles sont représentées par des disques jaunes et rouges sur la carte.

Passer la souris dessus pour voir le nom de la station.

Cliquer dessus pour voir les observations et prévisions météorologiques.

Pour changer de carte: cliquez sur les boutons verts avec une croix noire pour zoomer, sur le bouton vert avec un tiret pour effectuer un zoom arrière, ou sur les flèches vertes pour les cartes adjacentes.


METAR-TAF: